Clermont, Canada
Current Conditions -  °F | °C
As of 4:00 PM on Tuesday 25 Nov 2014 (Local Time) from CYBG Reporting Station
Broken Clouds Broken Clouds  
Wind Chill: 32°   Ceiling: 8000
Heat Index: 39°   Visibility: 25mi
Dew Point: 30°   Wind: 10mph
Humidity: 70%   Direction: 240°WSW
Pressure: 29.65"   Gusts: 20mph
Location:  47.68°N, 70.23°W
Report Text: CYBG 252100Z 24009G17KT 25SM SCT050 BKN080 04/M01 A2965 RMK SC3AC3 VIRGA SLP047
Loading
Personal Weather Stations






























Interactive Weather Map New forecast layout! Learn more

10-Day Weather Forecast

Advertisements
Track Severe Weather on mobile